TimeCDT,TemperatureF,Dew PointF,Humidity,Sea Level PressureIn,VisibilityMPH,Wind Direction,Wind SpeedMPH,Gust SpeedMPH,PrecipitationIn,Events,Conditions,WindDirDegrees,DateUTC
12:15 AM,72.9,72.1,98,30.00,10.0,South,8.1,-,N/A,,Clear,170,2013-08-22 05:15:00
12:35 AM,72.5,71.8,98,30.01,10.0,South,6.9,-,N/A,,Clear,190,2013-08-22 05:35:00
12:55 AM,72.5,71.6,97,30.02,10.0,SSW,5.8,-,N/A,,Clear,200,2013-08-22 05:55:00
1:15 AM,73.4,72.3,96,30.03,10.0,SSW,6.9,-,N/A,,Clear,200,2013-08-22 06:15:00
1:35 AM,72.3,71.8,98,30.02,7.0,South,5.8,-,N/A,,Clear,170,2013-08-22 06:35:00
1:55 AM,71.8,71.6,99,30.02,7.0,SSE,3.5,-,N/A,,Clear,160,2013-08-22 06:55:00
2:15 AM,71.6,71.6,100,30.02,7.0,Calm,Calm,-,N/A,,Clear,0,2013-08-22 07:15:00
2:35 AM,71.1,70.9,99,30.01,7.0,SSE,3.5,-,N/A,,Clear,160,2013-08-22 07:35:00
2:55 AM,70.3,70.3,100,30.02,7.0,Calm,Calm,-,N/A,,Clear,0,2013-08-22 07:55:00
3:15 AM,70.5,70.5,100,30.07,5.0,NNW,3.5,-,N/A,,Clear,340,2013-08-22 08:15:00
3:35 AM,71.2,70.7,98,30.09,10.0,Calm,Calm,-,N/A,,Clear,0,2013-08-22 08:35:00
3:55 AM,70.7,70.7,100,30.09,7.0,Calm,Calm,-,N/A,,Clear,0,2013-08-22 08:55:00
4:15 AM,70.5,70.5,100,30.08,7.0,Calm,Calm,-,N/A,,Clear,0,2013-08-22 09:15:00
4:35 AM,71.1,70.9,99,30.06,7.0,East,3.5,-,N/A,,Clear,90,2013-08-22 09:35:00
4:55 AM,70.0,70.0,100,30.07,7.0,Calm,Calm,-,N/A,,Clear,0,2013-08-22 09:55:00
5:15 AM,70.3,70.3,100,30.09,5.0,NW,4.6,-,N/A,,Clear,320,2013-08-22 10:15:00
5:35 AM,70.3,70.3,100,30.08,5.0,North,3.5,-,N/A,,Clear,360,2013-08-22 10:35:00
5:55 AM,70.2,70.2,100,30.09,7.0,Calm,Calm,-,N/A,,Clear,0,2013-08-22 10:55:00
6:15 AM,70.0,70.0,100,30.08,7.0,Calm,Calm,-,N/A,,Clear,0,2013-08-22 11:15:00
6:35 AM,70.9,70.9,100,30.08,10.0,East,3.5,-,N/A,,Clear,100,2013-08-22 11:35:00
6:55 AM,70.5,70.3,99,30.09,10.0,Calm,Calm,-,N/A,,Clear,0,2013-08-22 11:55:00
7:15 AM,70.3,70.3,100,30.08,7.0,Calm,Calm,-,N/A,,Clear,0,2013-08-22 12:15:00
7:35 AM,70.7,70.7,100,30.08,7.0,Calm,Calm,-,N/A,,Clear,0,2013-08-22 12:35:00
7:55 AM,70.2,70.2,100,30.07,7.0,SSE,5.8,-,N/A,,Clear,150,2013-08-22 12:55:00
8:15 AM,70.2,70.2,100,30.07,5.0,South,3.5,-,N/A,,Clear,170,2013-08-22 13:15:00
8:35 AM,70.2,70.2,100,30.07,5.0,SSE,5.8,-,N/A,,Clear,160,2013-08-22 13:35:00
8:55 AM,71.2,70.9,99,30.06,7.0,SSE,3.5,-,N/A,,Clear,160,2013-08-22 13:55:00
9:15 AM,72.0,71.6,99,30.05,7.0,SSE,6.9,-,N/A,,Clear,150,2013-08-22 14:15:00
9:35 AM,72.7,71.8,97,30.07,7.0,Calm,Calm,-,N/A,,Clear,0,2013-08-22 14:35:00
9:55 AM,72.9,71.2,95,30.05,10.0,SE,8.1,-,N/A,,Clear,130,2013-08-22 14:55:00
10:15 AM,72.7,71.2,95,30.05,10.0,ESE,8.1,-,N/A,,Clear,120,2013-08-22 15:15:00
10:35 AM,72.9,71.8,96,30.08,7.0,SE,4.6,-,N/A,,Clear,130,2013-08-22 15:35:00
10:55 AM,73.4,72.0,95,30.09,7.0,SE,6.9,-,N/A,,Clear,140,2013-08-22 15:55:00
11:15 AM,73.6,72.0,95,30.10,7.0,ESE,5.8,-,N/A,,Clear,110,2013-08-22 16:15:00
11:35 AM,74.3,72.0,92,30.10,10.0,ENE,5.8,-,N/A,,Clear,70,2013-08-22 16:35:00
11:55 AM,74.8,71.2,88,30.08,10.0,East,9.2,-,N/A,,Clear,100,2013-08-22 16:55:00
12:15 PM,75.9,69.8,81,30.10,10.0,East,8.1,-,N/A,,Clear,100,2013-08-22 17:15:00
12:35 PM,77.2,69.1,76,30.11,10.0,East,4.6,-,N/A,,Clear,90,2013-08-22 17:35:00
12:55 PM,79.5,68.7,69,30.09,10.0,East,9.2,-,N/A,,Clear,90,2013-08-22 17:55:00
1:15 PM,81.7,68.7,65,30.09,10.0,East,8.1,-,N/A,,Clear,80,2013-08-22 18:15:00
1:35 PM,82.0,69.1,65,30.08,10.0,East,6.9,-,N/A,,Clear,100,2013-08-22 18:35:00
1:55 PM,80.8,68.7,67,30.08,10.0,East,6.9,-,N/A,,Clear,90,2013-08-22 18:55:00
2:15 PM,82.9,68.9,62,30.08,10.0,ESE,8.1,-,N/A,,Clear,120,2013-08-22 19:15:00
2:35 PM,82.4,68.4,62,30.08,10.0,East,5.8,-,N/A,,Clear,90,2013-08-22 19:35:00
2:55 PM,83.8,68.0,59,30.08,10.0,East,5.8,-,N/A,,Clear,100,2013-08-22 19:55:00
3:15 PM,84.0,67.5,57,30.07,10.0,SE,4.6,-,N/A,,Clear,130,2013-08-22 20:15:00
3:35 PM,83.7,67.3,58,30.06,10.0,East,3.5,-,N/A,,Clear,100,2013-08-22 20:35:00
3:55 PM,83.1,67.8,60,30.06,10.0,East,4.6,-,N/A,,Clear,100,2013-08-22 20:55:00
4:15 PM,84.4,67.8,57,30.05,10.0,ESE,5.8,-,N/A,,Clear,120,2013-08-22 21:15:00
4:35 PM,83.3,68.2,60,30.05,10.0,ESE,4.6,-,N/A,,Clear,110,2013-08-22 21:35:00
4:55 PM,83.8,68.2,59,30.05,10.0,East,5.8,-,N/A,,Clear,90,2013-08-22 21:55:00
5:15 PM,84.0,68.7,60,30.05,10.0,East,6.9,-,N/A,,Clear,90,2013-08-22 22:15:00
5:35 PM,83.5,69.3,62,30.04,10.0,East,4.6,-,N/A,,Clear,80,2013-08-22 22:35:00
5:55 PM,84.2,69.4,61,30.04,10.0,ESE,5.8,-,N/A,,Clear,120,2013-08-22 22:55:00
6:15 PM,82.9,69.6,64,30.04,10.0,East,5.8,-,N/A,,Clear,100,2013-08-22 23:15:00
6:35 PM,81.7,70.3,68,30.04,10.0,ESE,4.6,-,N/A,,Clear,110,2013-08-22 23:35:00
6:55 PM,80.8,70.9,72,30.04,10.0,East,4.6,-,N/A,,Clear,90,2013-08-22 23:55:00
7:15 PM,80.1,71.2,74,30.04,10.0,Calm,Calm,-,N/A,,Clear,0,2013-08-23 00:15:00
7:35 PM,79.7,71.1,75,30.04,10.0,Calm,Calm,-,N/A,,Clear,0,2013-08-23 00:35:00
7:55 PM,77.5,71.8,82,30.04,10.0,Calm,Calm,-,N/A,,Clear,0,2013-08-23 00:55:00
8:15 PM,77.2,71.6,83,30.04,10.0,Calm,Calm,-,N/A,,Clear,0,2013-08-23 01:15:00
8:35 PM,76.3,71.6,85,30.04,10.0,ESE,3.5,-,N/A,,Clear,110,2013-08-23 01:35:00
8:55 PM,73.9,72.5,95,30.04,7.0,Calm,Calm,-,N/A,,Clear,0,2013-08-23 01:55:00
9:15 PM,75.4,73.0,92,30.04,10.0,Calm,Calm,-,N/A,,Clear,0,2013-08-23 02:15:00
9:35 PM,75.0,71.4,89,30.05,10.0,Calm,Calm,-,N/A,,Clear,0,2013-08-23 02:35:00
9:55 PM,74.7,71.6,90,30.05,10.0,Calm,Calm,-,N/A,,Clear,0,2013-08-23 02:55:00
10:15 PM,74.3,71.6,91,30.06,7.0,Calm,Calm,-,N/A,,Clear,0,2013-08-23 03:15:00
10:35 PM,73.8,72.3,95,30.06,10.0,Calm,Calm,-,N/A,,Clear,0,2013-08-23 03:35:00
10:55 PM,73.6,72.1,95,30.07,10.0,Calm,Calm,-,N/A,,Clear,0,2013-08-23 03:55:00
11:15 PM,72.5,71.8,98,30.07,7.0,NNE,4.6,-,N/A,,Clear,20,2013-08-23 04:15:00
11:35 PM,71.6,71.6,100,30.07,7.0,NNE,4.6,-,N/A,,Clear,20,2013-08-23 04:35:00
11:55 PM,71.2,71.2,100,30.08,7.0,NE,3.5,-,N/A,,Clear,40,2013-08-23 04:55:00